sensor_id;sensor_type;location;lat;lon;timestamp;pressure;altitude;pressure_sealevel;temperature;humidity
60897;BME280;46749;32.932;-117.130;2023-02-19T00:01:42;101327.13;;;20.54;46.94
60897;BME280;46749;32.932;-117.130;2023-02-19T00:06:39;101313.09;;;20.59;46.76
60897;BME280;46749;32.932;-117.130;2023-02-19T00:09:06;101307.84;;;20.62;46.78
60897;BME280;46749;32.932;-117.130;2023-02-19T00:11:33;101313.19;;;20.76;46.99
60897;BME280;46749;32.932;-117.130;2023-02-19T00:14:01;101305.31;;;20.87;46.63
60897;BME280;46749;32.932;-117.130;2023-02-19T00:16:30;101308.84;;;20.95;46.41
60897;BME280;46749;32.932;-117.130;2023-02-19T00:18:58;101310.63;;;21.00;46.44
60897;BME280;46749;32.932;-117.130;2023-02-19T00:21:26;101305.34;;;21.07;46.32
60897;BME280;46749;32.932;-117.130;2023-02-19T00:23:55;101308.00;;;21.08;46.59
60897;BME280;46749;32.932;-117.130;2023-02-19T00:26:22;101307.09;;;21.11;46.24
60897;BME280;46749;32.932;-117.130;2023-02-19T00:28:49;101315.06;;;21.12;46.44
60897;BME280;46749;32.932;-117.130;2023-02-19T00:31:29;101318.59;;;21.13;46.25
60897;BME280;46749;32.932;-117.130;2023-02-19T00:33:57;101321.22;;;21.16;46.33
60897;BME280;46749;32.932;-117.130;2023-02-19T00:36:25;101329.13;;;21.17;46.13
60897;BME280;46749;32.932;-117.130;2023-02-19T00:38:52;101331.78;;;21.17;46.48
60897;BME280;46749;32.932;-117.130;2023-02-19T00:41:21;101337.94;;;21.13;46.29
60897;BME280;46749;32.932;-117.130;2023-02-19T00:43:58;101342.34;;;21.07;46.64
60897;BME280;46749;32.932;-117.130;2023-02-19T00:46:31;101342.31;;;21.02;46.68
60897;BME280;46749;32.932;-117.130;2023-02-19T00:48:58;101350.22;;;20.97;46.83
60897;BME280;46749;32.932;-117.130;2023-02-19T00:51:28;101360.78;;;20.94;47.36
60897;BME280;46749;32.932;-117.130;2023-02-19T00:53:55;101371.31;;;20.91;47.36
60897;BME280;46749;32.932;-117.130;2023-02-19T00:56:22;101378.34;;;20.88;47.51
60897;BME280;46749;32.932;-117.130;2023-02-19T00:58:48;101382.72;;;20.83;47.36
60897;BME280;46749;32.932;-117.130;2023-02-19T01:01:15;101390.63;;;20.78;47.66
60897;BME280;46749;32.932;-117.130;2023-02-19T01:03:42;101386.19;;;20.72;47.20
60897;BME280;46749;32.932;-117.130;2023-02-19T01:06:09;101382.63;;;20.63;47.00
60897;BME280;46749;32.932;-117.130;2023-02-19T01:08:36;101394.03;;;20.56;46.82
60897;BME280;46749;32.932;-117.130;2023-02-19T01:11:04;101394.88;;;20.50;46.80
60897;BME280;46749;32.932;-117.130;2023-02-19T01:13:31;101398.34;;;20.46;46.81
60897;BME280;46749;32.932;-117.130;2023-02-19T01:16:05;101396.53;;;20.42;46.63
60897;BME280;46749;32.932;-117.130;2023-02-19T01:18:32;101390.34;;;20.38;46.32
60897;BME280;46749;32.932;-117.130;2023-02-19T01:21:03;101390.31;;;20.34;46.96
60897;BME280;46749;32.932;-117.130;2023-02-19T01:23:29;101384.16;;;20.30;46.78
60897;BME280;46749;32.932;-117.130;2023-02-19T01:25:55;101384.13;;;20.26;46.83
60897;BME280;46749;32.932;-117.130;2023-02-19T01:28:22;101389.38;;;20.24;47.26
60897;BME280;46749;32.932;-117.130;2023-02-19T01:30:48;101383.19;;;20.22;46.90
60897;BME280;46749;32.932;-117.130;2023-02-19T01:33:14;101386.72;;;20.21;46.88
60897;BME280;46749;32.932;-117.130;2023-02-19T01:35:40;101399.91;;;20.19;47.48
60897;BME280;46749;32.932;-117.130;2023-02-19T01:38:07;101400.78;;;20.20;47.22
60897;BME280;46749;32.932;-117.130;2023-02-19T01:40:33;101397.25;;;20.19;47.40
60897;BME280;46749;32.932;-117.130;2023-02-19T01:43:19;101392.88;;;20.20;47.43
60897;BME280;46749;32.932;-117.130;2023-02-19T01:45:46;101398.13;;;20.18;47.61
60897;BME280;46749;32.932;-117.130;2023-02-19T01:48:30;101392.84;;;20.18;47.30
60897;BME280;46749;32.932;-117.130;2023-02-19T01:51:12;101393.75;;;20.19;47.11
60897;BME280;46749;32.932;-117.130;2023-02-19T01:53:44;101390.19;;;20.17;47.10
60897;BME280;46749;32.932;-117.130;2023-02-19T01:56:12;101391.94;;;20.15;47.28
60897;BME280;46749;32.932;-117.130;2023-02-19T01:58:41;101401.59;;;20.14;47.30
60897;BME280;46749;32.932;-117.130;2023-02-19T02:01:07;101404.25;;;20.13;47.30
60897;BME280;46749;32.932;-117.130;2023-02-19T02:03:38;101398.09;;;20.12;47.00
60897;BME280;46749;32.932;-117.130;2023-02-19T02:06:25;101402.44;;;20.10;47.27
60897;BME280;46749;32.932;-117.130;2023-02-19T02:08:55;101391.00;;;20.08;47.16
60897;BME280;46749;32.932;-117.130;2023-02-19T02:11:51;101391.00;;;20.05;46.81
60897;BME280;46749;32.932;-117.130;2023-02-19T02:14:20;101378.66;;;20.01;46.75
60897;BME280;46749;32.932;-117.130;2023-02-19T02:17:03;101378.59;;;19.98;47.05
60897;BME280;46749;32.932;-117.130;2023-02-19T02:25:17;101375.03;;;19.90;47.12
60897;BME280;46749;32.932;-117.130;2023-02-19T02:30:46;101367.94;;;19.84;46.81
60897;BME280;46749;32.932;-117.130;2023-02-19T02:33:27;101376.72;;;19.82;46.76
60897;BME280;46749;32.932;-117.130;2023-02-19T02:36:02;101381.97;;;19.79;46.86
60897;BME280;46749;32.932;-117.130;2023-02-19T02:38:32;101376.69;;;19.76;46.93
60897;BME280;46749;32.932;-117.130;2023-02-19T02:41:01;101375.78;;;19.74;47.03
60897;BME280;46749;32.932;-117.130;2023-02-19T02:43:27;101375.75;;;19.71;46.97
60897;BME280;46749;32.932;-117.130;2023-02-19T02:45:53;101377.50;;;19.69;46.82
60897;BME280;46749;32.932;-117.130;2023-02-19T02:51:06;101388.88;;;19.64;47.10
60897;BME280;46749;32.932;-117.130;2023-02-19T02:53:52;101384.47;;;19.62;46.97
60897;BME280;46749;32.932;-117.130;2023-02-19T02:56:39;101394.97;;;19.60;47.21
60897;BME280;46749;32.932;-117.130;2023-02-19T02:59:09;101399.31;;;19.57;47.08
60897;BME280;46749;32.932;-117.130;2023-02-19T03:01:53;101404.56;;;19.55;46.92
60897;BME280;46749;32.932;-117.130;2023-02-19T03:10:54;101399.19;;;19.46;46.82
60897;BME280;46749;32.932;-117.130;2023-02-19T03:13:32;101400.06;;;19.45;46.93
60897;BME280;46749;32.932;-117.130;2023-02-19T03:16:32;101393.03;;;19.46;46.92
60897;BME280;46749;32.932;-117.130;2023-02-19T03:19:22;101404.44;;;19.43;47.14
60897;BME280;46749;32.932;-117.130;2023-02-19T03:22:00;101411.41;;;19.41;46.92
60897;BME280;46749;32.932;-117.130;2023-02-19T03:24:43;101402.63;;;19.39;46.95
60897;BME280;46749;32.932;-117.130;2023-02-19T03:27:30;101406.13;;;19.39;47.15
60897;BME280;46749;32.932;-117.130;2023-02-19T03:30:02;101406.13;;;19.38;47.03
60897;BME280;46749;32.932;-117.130;2023-02-19T03:32:35;101407.00;;;19.37;47.23
60897;BME280;46749;32.932;-117.130;2023-02-19T03:35:10;101400.81;;;19.35;47.31
60897;BME280;46749;32.932;-117.130;2023-02-19T03:38:01;101396.41;;;19.34;47.16
60897;BME280;46749;32.932;-117.130;2023-02-19T03:40:30;101403.41;;;19.32;47.27
60897;BME280;46749;32.932;-117.130;2023-02-19T03:43:25;101407.78;;;19.30;46.87
60897;BME280;46749;32.932;-117.130;2023-02-19T03:46:28;101408.63;;;19.29;47.38
60897;BME280;46749;32.932;-117.130;2023-02-19T03:49:05;101405.13;;;19.28;47.00
60897;BME280;46749;32.932;-117.130;2023-02-19T03:51:42;101422.66;;;19.26;47.10
60897;BME280;46749;32.932;-117.130;2023-02-19T03:54:21;101434.94;;;19.24;47.08
60897;BME280;46749;32.932;-117.130;2023-02-19T03:57:13;101441.03;;;19.22;47.27
60897;BME280;46749;32.932;-117.130;2023-02-19T03:59:55;101441.91;;;19.21;47.22
60897;BME280;46749;32.932;-117.130;2023-02-19T04:03:01;101447.16;;;19.19;47.24
60897;BME280;46749;32.932;-117.130;2023-02-19T04:05:23;101437.50;;;19.18;47.23
60897;BME280;46749;32.932;-117.130;2023-02-19T04:07:54;101430.44;;;19.16;47.14
60897;BME280;46749;32.932;-117.130;2023-02-19T04:10:23;101433.94;;;19.14;47.28
60897;BME280;46749;32.932;-117.130;2023-02-19T04:12:54;101436.56;;;19.13;47.34
60897;BME280;46749;32.932;-117.130;2023-02-19T04:15:25;101439.19;;;19.11;47.42
60897;BME280;46749;32.932;-117.130;2023-02-19T04:17:57;101440.88;;;19.09;47.36
60897;BME280;46749;32.932;-117.130;2023-02-19T04:20:26;101452.28;;;19.10;47.23
60897;BME280;46749;32.932;-117.130;2023-02-19T04:22:55;101449.66;;;19.08;47.17
60897;BME280;46749;32.932;-117.130;2023-02-19T04:25:23;101454.91;;;19.08;47.21
60897;BME280;46749;32.932;-117.130;2023-02-19T04:27:51;101455.78;;;19.07;46.97
60897;BME280;46749;32.932;-117.130;2023-02-19T04:30:17;101456.66;;;19.06;46.96
60897;BME280;46749;32.932;-117.130;2023-02-19T04:32:44;101453.97;;;19.03;47.12
60897;BME280;46749;32.932;-117.130;2023-02-19T04:35:10;101458.34;;;19.01;47.04
60897;BME280;46749;32.932;-117.130;2023-02-19T04:37:36;101471.50;;;19.01;47.38
60897;BME280;46749;32.932;-117.130;2023-02-19T04:40:03;101475.88;;;18.99;47.02
60897;BME280;46749;32.932;-117.130;2023-02-19T04:42:29;101478.44;;;18.98;46.97
60897;BME280;46749;32.932;-117.130;2023-02-19T04:44:55;101486.34;;;18.96;47.31
60897;BME280;46749;32.932;-117.130;2023-02-19T04:47:22;101503.00;;;18.95;47.01
60897;BME280;46749;32.932;-117.130;2023-02-19T04:49:48;101495.97;;;18.93;47.34
60897;BME280;46749;32.932;-117.130;2023-02-19T04:52:14;101498.53;;;18.91;47.20
60897;BME280;46749;32.932;-117.130;2023-02-19T04:54:40;101502.97;;;18.92;47.13
60897;BME280;46749;32.932;-117.130;2023-02-19T04:57:06;101493.28;;;18.91;47.09
60897;BME280;46749;32.932;-117.130;2023-02-19T04:59:33;101502.94;;;18.91;47.10
60897;BME280;46749;32.932;-117.130;2023-02-19T05:01:59;101505.53;;;18.89;47.47
60897;BME280;46749;32.932;-117.130;2023-02-19T05:04:25;101502.00;;;18.87;47.44
60897;BME280;46749;32.932;-117.130;2023-02-19T05:06:52;101507.22;;;18.85;47.32
60897;BME280;46749;32.932;-117.130;2023-02-19T05:09:18;101518.59;;;18.83;47.24
60897;BME280;46749;32.932;-117.130;2023-02-19T05:11:44;101530.03;;;18.83;47.49
60897;BME280;46749;32.932;-117.130;2023-02-19T05:14:10;101537.03;;;18.83;47.40
60897;BME280;46749;32.932;-117.130;2023-02-19T05:16:36;101536.16;;;18.82;47.10
60897;BME280;46749;32.932;-117.130;2023-02-19T05:19:03;101531.75;;;18.81;47.46
60897;BME280;46749;32.932;-117.130;2023-02-19T05:21:29;101530.00;;;18.80;47.19
60897;BME280;46749;32.932;-117.130;2023-02-19T05:23:55;101527.31;;;18.79;47.31
60897;BME280;46749;32.932;-117.130;2023-02-19T05:26:22;101535.19;;;18.77;47.44
60897;BME280;46749;32.932;-117.130;2023-02-19T05:28:51;101546.59;;;18.76;47.46
60897;BME280;46749;32.932;-117.130;2023-02-19T05:31:18;101552.72;;;18.77;47.30
60897;BME280;46749;32.932;-117.130;2023-02-19T05:33:44;101544.84;;;18.77;47.05
60897;BME280;46749;32.932;-117.130;2023-02-19T05:36:14;101544.81;;;18.75;47.41
60897;BME280;46749;32.932;-117.130;2023-02-19T05:38:41;101550.06;;;18.75;46.66
60897;BME280;46749;32.932;-117.130;2023-02-19T05:41:09;101548.09;;;18.64;42.08
60897;BME280;46749;32.932;-117.130;2023-02-19T05:43:37;101564.63;;;18.55;42.02
60897;BME280;46749;32.932;-117.130;2023-02-19T05:46:04;101575.06;;;18.50;42.16
60897;BME280;46749;32.932;-117.130;2023-02-19T05:48:31;101566.31;;;18.51;42.27
60897;BME280;46749;32.932;-117.130;2023-02-19T05:51:02;101573.34;;;18.52;43.28
60897;BME280;46749;32.932;-117.130;2023-02-19T05:53:29;101571.59;;;18.53;43.87
60897;BME280;46749;32.932;-117.130;2023-02-19T05:55:55;101576.91;;;18.54;44.34
60897;BME280;46749;32.932;-117.130;2023-02-19T05:58:21;101564.56;;;18.53;44.69
60897;BME280;46749;32.932;-117.130;2023-02-19T06:00:48;101568.06;;;18.52;44.91
60897;BME280;46749;32.932;-117.130;2023-02-19T06:03:14;101570.69;;;18.52;45.16
60897;BME280;46749;32.932;-117.130;2023-02-19T06:05:40;101572.44;;;18.50;45.19
60897;BME280;46749;32.932;-117.130;2023-02-19T06:08:06;101575.03;;;18.49;45.15
60897;BME280;46749;32.932;-117.130;2023-02-19T06:10:32;101571.53;;;18.48;45.28
60897;BME280;46749;32.932;-117.130;2023-02-19T06:12:59;101572.34;;;18.46;45.33
60897;BME280;46749;32.932;-117.130;2023-02-19T06:15:25;101565.31;;;18.45;45.16
60897;BME280;46749;32.932;-117.130;2023-02-19T06:17:51;101574.94;;;18.44;45.34
60897;BME280;46749;32.932;-117.130;2023-02-19T06:20:17;101571.41;;;18.42;45.42
60897;BME280;46749;32.932;-117.130;2023-02-19T06:22:43;101573.13;;;18.40;45.50
60897;BME280;46749;32.932;-117.130;2023-02-19T06:25:10;101571.34;;;18.39;45.54
60897;BME280;46749;32.932;-117.130;2023-02-19T06:27:38;101569.59;;;18.38;45.36
60897;BME280;46749;32.932;-117.130;2023-02-19T06:30:04;101567.81;;;18.37;45.55
60897;BME280;46749;32.932;-117.130;2023-02-19T06:32:31;101566.88;;;18.35;45.67
60897;BME280;46749;32.932;-117.130;2023-02-19T06:34:57;101574.75;;;18.33;45.64
60897;BME280;46749;32.932;-117.130;2023-02-19T06:37:23;101568.59;;;18.33;45.50
60897;BME280;46749;32.932;-117.130;2023-02-19T06:39:49;101572.97;;;18.31;45.48
60897;BME280;46749;32.932;-117.130;2023-02-19T06:42:15;101570.31;;;18.29;45.49
60897;BME280;46749;32.932;-117.130;2023-02-19T06:44:42;101572.00;;;18.27;45.60
60897;BME280;46749;32.932;-117.130;2023-02-19T06:47:08;101570.25;;;18.26;45.67
60897;BME280;46749;32.932;-117.130;2023-02-19T06:49:35;101571.97;;;18.24;45.58
60897;BME280;46749;32.932;-117.130;2023-02-19T06:52:01;101574.56;;;18.23;45.60
60897;BME280;46749;32.932;-117.130;2023-02-19T06:54:28;101573.63;;;18.19;45.66
60897;BME280;46749;32.932;-117.130;2023-02-19T06:56:54;101572.72;;;18.19;45.66
60897;BME280;46749;32.932;-117.130;2023-02-19T06:59:23;101572.72;;;18.17;45.68
60897;BME280;46749;32.932;-117.130;2023-02-19T07:01:50;101571.78;;;18.15;45.73
60897;BME280;46749;32.932;-117.130;2023-02-19T07:04:17;101571.75;;;18.14;45.73
60897;BME280;46749;32.932;-117.130;2023-02-19T07:06:43;101566.47;;;18.12;45.86
60897;BME280;46749;32.932;-117.130;2023-02-19T07:09:10;101561.19;;;18.11;45.59
60897;BME280;46749;32.932;-117.130;2023-02-19T07:11:38;101560.25;;;18.09;45.68
60897;BME280;46749;32.932;-117.130;2023-02-19T07:14:06;101563.75;;;18.08;45.67
60897;BME280;46749;32.932;-117.130;2023-02-19T07:16:33;101561.97;;;18.05;45.79
60897;BME280;46749;32.932;-117.130;2023-02-19T07:19:00;101561.03;;;18.03;45.58
60897;BME280;46749;32.932;-117.130;2023-02-19T07:21:27;101560.16;;;18.02;45.65
60897;BME280;46749;32.932;-117.130;2023-02-19T07:23:54;101555.75;;;18.01;45.90
60897;BME280;46749;32.932;-117.130;2023-02-19T07:26:21;101556.63;;;18.00;45.84
60897;BME280;46749;32.932;-117.130;2023-02-19T07:28:49;101546.94;;;17.98;45.69
60897;BME280;46749;32.932;-117.130;2023-02-19T07:31:18;101556.53;;;17.97;45.70
60897;BME280;46749;32.932;-117.130;2023-02-19T07:33:45;101560.88;;;17.94;45.78
60897;BME280;46749;32.932;-117.130;2023-02-19T07:36:12;101554.72;;;17.93;45.89
60897;BME280;46749;32.932;-117.130;2023-02-19T07:38:39;101557.34;;;17.92;45.70
60897;BME280;46749;32.932;-117.130;2023-02-19T07:41:26;101544.13;;;17.90;45.87
60897;BME280;46749;32.932;-117.130;2023-02-19T07:43:53;101539.75;;;17.89;45.72
60897;BME280;46749;32.932;-117.130;2023-02-19T07:46:20;101532.69;;;17.87;46.12
60897;BME280;46749;32.932;-117.130;2023-02-19T07:48:46;101529.13;;;17.85;46.14
60897;BME280;46749;32.932;-117.130;2023-02-19T07:51:16;101532.63;;;17.84;45.77
60897;BME280;46749;32.932;-117.130;2023-02-19T07:53:47;101520.34;;;17.83;45.77
60897;BME280;46749;32.932;-117.130;2023-02-19T07:56:15;101513.31;;;17.80;45.99
60897;BME280;46749;32.932;-117.130;2023-02-19T07:58:41;101520.31;;;17.79;45.95
60897;BME280;46749;32.932;-117.130;2023-02-19T08:01:09;101522.88;;;17.78;45.95
60897;BME280;46749;32.932;-117.130;2023-02-19T08:03:37;101523.72;;;17.77;45.90
60897;BME280;46749;32.932;-117.130;2023-02-19T08:06:04;101536.84;;;17.74;45.92
60897;BME280;46749;32.932;-117.130;2023-02-19T08:08:30;101544.72;;;17.74;45.87
60897;BME280;46749;32.932;-117.130;2023-02-19T08:11:03;101544.59;;;17.71;45.83
60897;BME280;46749;32.932;-117.130;2023-02-19T08:13:49;101541.97;;;17.71;45.86
60897;BME280;46749;32.932;-117.130;2023-02-19T08:16:17;101542.84;;;17.70;45.82
60897;BME280;46749;32.932;-117.130;2023-02-19T08:18:47;101542.81;;;17.68;45.90
60897;BME280;46749;32.932;-117.130;2023-02-19T08:21:14;101538.41;;;17.67;45.79
60897;BME280;46749;32.932;-117.130;2023-02-19T08:23:42;101535.72;;;17.66;45.73
60897;BME280;46749;32.932;-117.130;2023-02-19T08:26:11;101530.47;;;17.64;45.81
60897;BME280;46749;32.932;-117.130;2023-02-19T08:28:37;101529.56;;;17.64;45.87
60897;BME280;46749;32.932;-117.130;2023-02-19T08:31:05;101526.91;;;17.62;45.86
60897;BME280;46749;32.932;-117.130;2023-02-19T08:33:33;101521.66;;;17.62;45.87
60897;BME280;46749;32.932;-117.130;2023-02-19T08:36:04;101518.06;;;17.59;45.79
60897;BME280;46749;32.932;-117.130;2023-02-19T08:38:32;101518.06;;;17.57;45.93
60897;BME280;46749;32.932;-117.130;2023-02-19T08:41:05;101532.06;;;17.56;45.70
60897;BME280;46749;32.932;-117.130;2023-02-19T08:43:31;101531.16;;;17.56;45.93
60897;BME280;46749;32.932;-117.130;2023-02-19T08:45:58;101539.91;;;17.55;45.84
60897;BME280;46749;32.932;-117.130;2023-02-19T08:48:24;101547.72;;;17.53;45.81
60897;BME280;46749;32.932;-117.130;2023-02-19T08:50:58;101555.59;;;17.51;45.75
60897;BME280;46749;32.932;-117.130;2023-02-19T08:53:25;101574.81;;;17.50;45.92
60897;BME280;46749;32.932;-117.130;2023-02-19T08:55:52;101570.44;;;17.49;45.73
60897;BME280;46749;32.932;-117.130;2023-02-19T08:58:18;101571.28;;;17.48;45.85
60897;BME280;46749;32.932;-117.130;2023-02-19T09:00:44;101570.34;;;17.46;45.70
60897;BME280;46749;32.932;-117.130;2023-02-19T09:03:10;101586.97;;;17.45;45.85
60897;BME280;46749;32.932;-117.130;2023-02-19T09:05:37;101584.31;;;17.44;45.66
60897;BME280;46749;32.932;-117.130;2023-02-19T09:08:04;101584.28;;;17.42;45.77
60897;BME280;46749;32.932;-117.130;2023-02-19T09:10:30;101585.97;;;17.40;45.91
60897;BME280;46749;32.932;-117.130;2023-02-19T09:12:56;101571.06;;;17.39;45.78
60897;BME280;46749;32.932;-117.130;2023-02-19T09:15:23;101571.94;;;17.38;45.47
60897;BME280;46749;32.932;-117.130;2023-02-19T09:17:52;101569.28;;;17.37;45.86
60897;BME280;46749;32.932;-117.130;2023-02-19T09:20:19;101570.16;;;17.37;45.82
60897;BME280;46749;32.932;-117.130;2023-02-19T09:22:45;101568.34;;;17.35;45.89
60897;BME280;46749;32.932;-117.130;2023-02-19T09:25:11;101560.44;;;17.33;45.91
60897;BME280;46749;32.932;-117.130;2023-02-19T09:27:38;101567.44;;;17.33;45.86
60897;BME280;46749;32.932;-117.130;2023-02-19T09:30:04;101559.53;;;17.31;45.90
60897;BME280;46749;32.932;-117.130;2023-02-19T09:32:31;101559.50;;;17.30;45.68
60897;BME280;46749;32.932;-117.130;2023-02-19T09:34:57;101560.34;;;17.29;45.89
60897;BME280;46749;32.932;-117.130;2023-02-19T09:37:27;101562.91;;;17.27;45.98
60897;BME280;46749;32.932;-117.130;2023-02-19T09:39:54;101574.28;;;17.26;45.70
60897;BME280;46749;32.932;-117.130;2023-02-19T09:42:26;101569.88;;;17.25;45.79
60897;BME280;46749;32.932;-117.130;2023-02-19T09:44:57;101563.72;;;17.23;46.01
60897;BME280;46749;32.932;-117.130;2023-02-19T09:47:29;101554.06;;;17.22;45.84
60897;BME280;46749;32.932;-117.130;2023-02-19T09:50:04;101553.13;;;17.20;45.77
60897;BME280;46749;32.932;-117.130;2023-02-19T09:57:56;101563.59;;;17.17;45.83
60897;BME280;46749;32.932;-117.130;2023-02-19T10:00:24;101560.88;;;17.14;45.76
60897;BME280;46749;32.932;-117.130;2023-02-19T10:03:03;101566.97;;;17.13;45.70
60897;BME280;46749;32.932;-117.130;2023-02-19T10:05:31;101575.72;;;17.12;46.02
60897;BME280;46749;32.932;-117.130;2023-02-19T10:07:58;101580.09;;;17.11;45.84
60897;BME280;46749;32.932;-117.130;2023-02-19T10:10:33;101566.94;;;17.10;45.74
60897;BME280;46749;32.932;-117.130;2023-02-19T10:15:47;101554.59;;;17.07;45.87
60897;BME280;46749;32.932;-117.130;2023-02-19T10:18:16;101565.06;;;17.06;45.75
60897;BME280;46749;32.932;-117.130;2023-02-19T10:20:44;101566.78;;;17.04;45.79
60897;BME280;46749;32.932;-117.130;2023-02-19T10:23:13;101565.88;;;17.03;45.83
60897;BME280;46749;32.932;-117.130;2023-02-19T10:25:54;101543.06;;;17.01;45.80
60897;BME280;46749;32.932;-117.130;2023-02-19T10:28:34;101544.81;;;17.00;45.91
60897;BME280;46749;32.932;-117.130;2023-02-19T10:31:14;101535.16;;;16.97;45.96
60897;BME280;46749;32.932;-117.130;2023-02-19T10:34:07;101536.84;;;16.97;45.78
60897;BME280;46749;32.932;-117.130;2023-02-19T10:36:42;101515.84;;;16.95;45.78
60897;BME280;46749;32.932;-117.130;2023-02-19T10:41:51;101522.81;;;16.93;45.63
60897;BME280;46749;32.932;-117.130;2023-02-19T10:44:25;101518.31;;;16.89;45.80
60897;BME280;46749;32.932;-117.130;2023-02-19T10:46:54;101507.81;;;16.89;45.73
60897;BME280;46749;32.932;-117.130;2023-02-19T10:49:38;101499.94;;;16.88;45.82
60897;BME280;46749;32.932;-117.130;2023-02-19T10:54:43;101516.50;;;16.85;45.72
60897;BME280;46749;32.932;-117.130;2023-02-19T10:57:36;101512.94;;;16.83;45.81
60897;BME280;46749;32.932;-117.130;2023-02-19T11:02:42;101505.88;;;16.81;45.89
60897;BME280;46749;32.932;-117.130;2023-02-19T11:07:50;101510.16;;;16.77;45.84
60897;BME280;46749;32.932;-117.130;2023-02-19T11:10:25;101513.63;;;16.76;45.84
60897;BME280;46749;32.932;-117.130;2023-02-19T11:12:58;101504.00;;;16.75;45.99
60897;BME280;46749;32.932;-117.130;2023-02-19T11:20:56;101517.94;;;16.73;45.89
60897;BME280;46749;32.932;-117.130;2023-02-19T11:23:36;101503.97;;;16.74;45.93
60897;BME280;46749;32.932;-117.130;2023-02-19T11:26:22;101490.84;;;16.72;46.14
60897;BME280;46749;32.932;-117.130;2023-02-19T11:29:00;101494.28;;;16.71;45.98
60897;BME280;46749;32.932;-117.130;2023-02-19T11:31:31;101497.75;;;16.70;46.13
60897;BME280;46749;32.932;-117.130;2023-02-19T11:34:43;101502.94;;;16.68;46.13
60897;BME280;46749;32.932;-117.130;2023-02-19T11:37:17;101500.28;;;16.67;46.11
60897;BME280;46749;32.932;-117.130;2023-02-19T11:39:49;101505.53;;;16.67;45.91
60897;BME280;46749;32.932;-117.130;2023-02-19T11:42:40;101506.31;;;16.64;45.94
60897;BME280;46749;32.932;-117.130;2023-02-19T11:51:09;101505.38;;;16.61;46.07
60897;BME280;46749;32.932;-117.130;2023-02-19T12:00:00;101512.28;;;16.57;46.08
60897;BME280;46749;32.932;-117.130;2023-02-19T12:02:53;101522.78;;;16.57;46.00
60897;BME280;46749;32.932;-117.130;2023-02-19T12:08:25;101530.50;;;16.53;46.35
60897;BME280;46749;32.932;-117.130;2023-02-19T12:16:46;101532.19;;;16.49;46.20
60897;BME280;46749;32.932;-117.130;2023-02-19T12:22:29;101527.75;;;16.46;46.24
60897;BME280;46749;32.932;-117.130;2023-02-19T12:25:24;101531.19;;;16.44;46.15
60897;BME280;46749;32.932;-117.130;2023-02-19T12:34:08;101518.06;;;16.44;46.20
60897;BME280;46749;32.932;-117.130;2023-02-19T12:45:06;101532.78;;;16.39;46.36
60897;BME280;46749;32.932;-117.130;2023-02-19T12:47:41;101532.75;;;16.37;46.25
60897;BME280;46749;32.932;-117.130;2023-02-19T12:50:18;101534.50;;;16.37;46.32
60897;BME280;46749;32.932;-117.130;2023-02-19T12:52:51;101530.09;;;16.34;46.37
60897;BME280;46749;32.932;-117.130;2023-02-19T12:55:40;101530.91;;;16.33;46.36
60897;BME280;46749;32.932;-117.130;2023-02-19T12:58:13;101529.16;;;16.34;46.49
60897;BME280;46749;32.932;-117.130;2023-02-19T13:00:47;101537.00;;;16.32;46.47
60897;BME280;46749;32.932;-117.130;2023-02-19T13:03:31;101532.63;;;16.33;46.42
60897;BME280;46749;32.932;-117.130;2023-02-19T13:06:24;101536.13;;;16.32;46.29
60897;BME280;46749;32.932;-117.130;2023-02-19T13:09:18;101543.09;;;16.31;46.47
60897;BME280;46749;32.932;-117.130;2023-02-19T13:14:55;101534.31;;;16.29;46.72
60897;BME280;46749;32.932;-117.130;2023-02-19T13:17:41;101543.84;;;16.27;46.49
60897;BME280;46749;32.932;-117.130;2023-02-19T13:20:25;101546.44;;;16.26;46.63
60897;BME280;46749;32.932;-117.130;2023-02-19T13:33:42;101542.00;;;16.23;46.59
60897;BME280;46749;32.932;-117.130;2023-02-19T13:36:28;101541.06;;;16.21;46.60
60897;BME280;46749;32.932;-117.130;2023-02-19T13:38:56;101541.06;;;16.21;46.72
60897;BME280;46749;32.932;-117.130;2023-02-19T13:41:38;101536.69;;;16.20;46.43
60897;BME280;46749;32.932;-117.130;2023-02-19T13:44:13;101534.91;;;16.19;46.76
60897;BME280;46749;32.932;-117.130;2023-02-19T13:46:42;101538.34;;;16.16;46.65
60897;BME280;46749;32.932;-117.130;2023-02-19T13:49:39;101550.56;;;16.16;46.54
60897;BME280;46749;32.932;-117.130;2023-02-19T14:01:03;101563.56;;;16.13;46.70
60897;BME280;46749;32.932;-117.130;2023-02-19T14:06:04;101553.06;;;16.11;46.62
60897;BME280;46749;32.932;-117.130;2023-02-19T14:08:47;101564.31;;;16.09;46.43
60897;BME280;46749;32.932;-117.130;2023-02-19T14:11:14;101559.94;;;16.08;46.71
60897;BME280;46749;32.932;-117.130;2023-02-19T14:16:49;101559.00;;;16.06;46.58
60897;BME280;46749;32.932;-117.130;2023-02-19T14:19:49;101555.53;;;16.07;46.61
60897;BME280;46749;32.932;-117.130;2023-02-19T14:33:32;101561.53;;;16.03;46.79
60897;BME280;46749;32.932;-117.130;2023-02-19T14:39:11;101571.94;;;16.00;46.72
60897;BME280;46749;32.932;-117.130;2023-02-19T14:41:41;101567.56;;;15.99;46.71
60897;BME280;46749;32.932;-117.130;2023-02-19T14:44:22;101568.44;;;15.99;47.05
60897;BME280;46749;32.932;-117.130;2023-02-19T14:47:03;101570.19;;;15.99;46.60
60897;BME280;46749;32.932;-117.130;2023-02-19T14:49:53;101569.25;;;15.97;46.63